Time;durP1;ratioP1;P1;durP2;ratioP2;P2;SDS_P1;SDS_P2;PMS_P1;PMS_P2;Temp;Humidity;BMP_temperature;BMP_pressure;BME280_temperature;BME280_humidity;BME280_pressure;Samples;Min_cycle;Max_cycle;Signal;HPM_P1;HPM_P2
2024/01/02 00:00:23;;;;;;;75.22;53.70;;;;;;;;;;5095373;27;23272;-69
2024/01/02 00:02:49;;;;;;;49.95;39.30;;;;;;;;;;5115763;27;22379;-70
2024/01/02 00:05:15;;;;;;;43.28;36.50;;;;;;;;;;5114760;27;20023;-68
2024/01/02 00:07:40;;;;;;;33.85;29.10;;;;;;;;;;5092550;28;20052;-68
2024/01/02 00:10:06;;;;;;;30.27;27.10;;;;;;;;;;5092864;28;20050;-68
2024/01/02 00:12:31;;;;;;;23.85;21.58;;;;;;;;;;5095623;28;20016;-68
2024/01/02 00:14:56;;;;;;;21.13;19.13;;;;;;;;;;5095235;28;20077;-68
2024/01/02 00:17:22;;;;;;;27.20;24.63;;;;;;;;;;5084675;28;20077;-69
2024/01/02 00:19:47;;;;;;;26.85;24.15;;;;;;;;;;5069194;28;20166;-70
2024/01/02 00:22:12;;;;;;;38.55;34.30;;;;;;;;;;5077176;28;20081;-68
2024/01/02 00:24:38;;;;;;;46.17;40.97;;;;;;;;;;5096217;28;20106;-69
2024/01/02 00:27:03;;;;;;;52.67;44.13;;;;;;;;;;5094096;28;20046;-69
2024/01/02 00:29:29;;;;;;;49.55;44.20;;;;;;;;;;5096074;28;20039;-70
2024/01/02 00:31:54;;;;;;;41.63;35.85;;;;;;;;;;5094470;28;20035;-69
2024/01/02 00:34:20;;;;;;;38.97;34.80;;;;;;;;;;5094955;28;20027;-69
2024/01/02 00:36:45;;;;;;;25.60;22.92;;;;;;;;;;5096496;28;20024;-70
2024/01/02 00:39:10;;;;;;;67.50;53.15;;;;;;;;;;5094535;28;20056;-69
2024/01/02 00:41:36;;;;;;;108.20;75.15;;;;;;;;;;5095411;28;20422;-69
2024/01/02 00:44:01;;;;;;;75.35;52.72;;;;;;;;;;5091149;28;20043;-70
2024/01/02 00:46:27;;;;;;;58.35;42.10;;;;;;;;;;5090948;28;20396;-69
2024/01/02 00:48:52;;;;;;;51.00;40.95;;;;;;;;;;5094810;28;20462;-69
2024/01/02 00:51:17;;;;;;;51.65;45.83;;;;;;;;;;5092365;28;20435;-70
2024/01/02 00:53:43;;;;;;;45.05;40.45;;;;;;;;;;5093640;28;20035;-68
2024/01/02 00:56:08;;;;;;;38.78;34.72;;;;;;;;;;5096362;28;20106;-69
2024/01/02 00:58:33;;;;;;;36.05;32.15;;;;;;;;;;5093863;28;20024;-69
2024/01/02 01:00:59;;;;;;;29.63;26.52;;;;;;;;;;5098092;28;20019;-69
2024/01/02 01:03:24;;;;;;;36.03;32.13;;;;;;;;;;5100392;28;20031;-68
2024/01/02 01:05:50;;;;;;;30.10;27.00;;;;;;;;;;5096161;28;20106;-69
2024/01/02 01:08:15;;;;;;;45.08;40.25;;;;;;;;;;5105618;27;20055;-69
2024/01/02 01:10:41;;;;;;;24.45;22.05;;;;;;;;;;5117929;27;20026;-69
2024/01/02 01:13:06;;;;;;;24.90;22.42;;;;;;;;;;5099843;27;20055;-71
2024/01/02 01:15:31;;;;;;;25.30;22.92;;;;;;;;;;5116069;27;20023;-70
2024/01/02 01:17:57;;;;;;;28.20;25.20;;;;;;;;;;5117637;27;20079;-70
2024/01/02 01:20:22;;;;;;;24.85;22.17;;;;;;;;;;5116688;27;20890;-69
2024/01/02 01:22:47;;;;;;;33.03;29.35;;;;;;;;;;5117806;27;20326;-71
2024/01/02 01:25:13;;;;;;;36.20;32.38;;;;;;;;;;5118189;27;20031;-69
2024/01/02 01:27:38;;;;;;;47.53;42.70;;;;;;;;;;5118960;27;20136;-69
2024/01/02 01:30:03;;;;;;;64.93;57.70;;;;;;;;;;5120999;27;20091;-70
2024/01/02 01:32:29;;;;;;;84.72;75.05;;;;;;;;;;5117017;27;20043;-70
2024/01/02 01:34:54;;;;;;;72.25;60.83;;;;;;;;;;5118155;27;20030;-69
2024/01/02 01:37:19;;;;;;;52.90;46.22;;;;;;;;;;5121256;27;20027;-70
2024/01/02 01:39:45;;;;;;;42.67;38.25;;;;;;;;;;5116946;27;20027;-69
2024/01/02 01:42:10;;;;;;;32.05;28.75;;;;;;;;;;5117331;27;20091;-69
2024/01/02 01:44:35;;;;;;;32.25;28.92;;;;;;;;;;5117913;27;20102;-68
2024/01/02 01:47:03;;;;;;;33.10;29.70;;;;;;;;;;5111365;27;20024;-69
2024/01/02 01:49:28;;;;;;;27.63;24.83;;;;;;;;;;5105282;27;20113;-68
2024/01/02 01:51:54;;;;;;;22.67;20.38;;;;;;;;;;5117162;27;20122;-69
2024/01/02 01:54:20;;;;;;;24.95;22.50;;;;;;;;;;5117927;27;20027;-70
2024/01/02 01:56:45;;;;;;;29.90;26.92;;;;;;;;;;5117409;27;20122;-69
2024/01/02 01:59:14;;;;;;;27.45;24.60;;;;;;;;;;5117179;27;20092;-70
2024/01/02 02:01:40;;;;;;;17.38;15.77;;;;;;;;;;5119265;27;20098;-69
2024/01/02 02:04:05;;;;;;;13.63;12.43;;;;;;;;;;5117720;27;20062;-70
2024/01/02 02:06:31;;;;;;;12.82;11.63;;;;;;;;;;5118893;27;20035;-70
2024/01/02 02:08:56;;;;;;;10.50;9.40;;;;;;;;;;5115922;27;20048;-69
2024/01/02 02:11:22;;;;;;;9.02;8.20;;;;;;;;;;5099478;27;20027;-69
2024/01/02 02:13:48;;;;;;;10.65;9.65;;;;;;;;;;5114166;27;20403;-71
2024/01/02 02:16:14;;;;;;;12.20;11.10;;;;;;;;;;5102781;27;20106;-70
2024/01/02 02:18:39;;;;;;;45.85;36.03;;;;;;;;;;5095004;27;20030;-69
2024/01/02 02:21:04;;;;;;;58.85;45.65;;;;;;;;;;5102343;27;20123;-70
2024/01/02 02:23:30;;;;;;;64.32;57.03;;;;;;;;;;5116704;27;20413;-70
2024/01/02 02:25:55;;;;;;;48.80;42.20;;;;;;;;;;5113325;27;20092;-69
2024/01/02 02:28:21;;;;;;;63.63;55.55;;;;;;;;;;5088456;28;20089;-69
2024/01/02 02:30:46;;;;;;;50.75;42.97;;;;;;;;;;5106689;27;20157;-68
2024/01/02 02:33:11;;;;;;;37.85;33.47;;;;;;;;;;5117978;27;20037;-68
2024/01/02 02:35:37;;;;;;;30.23;27.13;;;;;;;;;;5118104;27;20398;-69
2024/01/02 02:38:02;;;;;;;29.65;26.75;;;;;;;;;;5111544;27;20030;-70
2024/01/02 02:40:27;;;;;;;25.90;23.30;;;;;;;;;;5098302;27;20122;-68
2024/01/02 02:42:53;;;;;;;24.85;22.33;;;;;;;;;;5118872;27;20023;-69
2024/01/02 02:45:18;;;;;;;20.45;18.40;;;;;;;;;;5099550;27;20034;-68
2024/01/02 02:47:44;;;;;;;22.17;19.85;;;;;;;;;;5108917;27;20033;-67
2024/01/02 02:50:10;;;;;;;33.30;29.88;;;;;;;;;;5103934;27;20059;-68
2024/01/02 02:52:35;;;;;;;33.90;30.30;;;;;;;;;;5095333;27;20430;-68
2024/01/02 02:55:00;;;;;;;32.58;29.38;;;;;;;;;;5095087;27;20042;-68
2024/01/02 02:57:26;;;;;;;43.35;38.90;;;;;;;;;;5093603;27;20027;-69
2024/01/02 02:59:51;;;;;;;32.28;29.05;;;;;;;;;;5080204;27;20076;-67
2024/01/02 03:02:17;;;;;;;33.20;29.95;;;;;;;;;;5093925;27;20631;-69
2024/01/02 03:04:43;;;;;;;99.38;84.03;;;;;;;;;;5073233;28;20354;-68
2024/01/02 03:07:09;;;;;;;79.22;64.43;;;;;;;;;;5094529;27;20391;-67
2024/01/02 03:09:34;;;;;;;22.45;20.17;;;;;;;;;;5078234;27;20051;-68
2024/01/02 03:11:59;;;;;;;15.65;14.10;;;;;;;;;;5098478;27;20023;-67
2024/01/02 03:14:25;;;;;;;17.33;15.63;;;;;;;;;;5117053;27;20134;-69
2024/01/02 03:16:50;;;;;;;12.10;11.00;;;;;;;;;;5116024;27;20027;-68
2024/01/02 03:19:15;;;;;;;10.70;9.80;;;;;;;;;;5119139;27;20027;-71
2024/01/02 03:21:41;;;;;;;12.23;9.18;;;;;;;;;;5116534;27;20457;-68
2024/01/02 03:24:06;;;;;;;10.13;9.23;;;;;;;;;;5115197;27;20035;-67
2024/01/02 03:26:32;;;;;;;10.98;9.95;;;;;;;;;;5114993;27;20084;-68
2024/01/02 03:28:57;;;;;;;9.13;8.32;;;;;;;;;;5095152;27;20035;-69
2024/01/02 03:31:22;;;;;;;9.00;8.13;;;;;;;;;;5090432;27;20059;-68
2024/01/02 03:33:48;;;;;;;8.88;7.97;;;;;;;;;;5108124;27;20066;-68
2024/01/02 03:36:22;;;;;;;8.23;7.43;;;;;;;;;;5116093;27;20054;-69
2024/01/02 03:38:48;;;;;;;15.60;14.18;;;;;;;;;;5097869;27;20027;-70
2024/01/02 03:41:13;;;;;;;11.70;10.50;;;;;;;;;;5105200;27;20029;-68
2024/01/02 03:43:39;;;;;;;11.63;10.50;;;;;;;;;;5105409;27;20031;-67
2024/01/02 03:46:04;;;;;;;16.15;14.25;;;;;;;;;;5113905;27;20024;-68
2024/01/02 03:48:30;;;;;;;16.55;14.95;;;;;;;;;;5111855;27;20040;-69
2024/01/02 03:50:55;;;;;;;10.73;9.73;;;;;;;;;;5117609;27;20039;-68
2024/01/02 03:53:20;;;;;;;14.45;13.05;;;;;;;;;;5114417;27;20107;-69
2024/01/02 03:55:46;;;;;;;18.90;17.08;;;;;;;;;;5099659;27;20026;-68
2024/01/02 03:58:11;;;;;;;34.53;30.80;;;;;;;;;;5115034;27;20091;-70
2024/01/02 04:00:37;;;;;;;32.58;29.08;;;;;;;;;;5116278;27;20080;-69
2024/01/02 04:03:02;;;;;;;36.50;32.63;;;;;;;;;;5118274;27;20026;-68
2024/01/02 04:05:28;;;;;;;23.05;20.75;;;;;;;;;;5096963;27;20407;-68
2024/01/02 04:07:53;;;;;;;27.25;24.38;;;;;;;;;;5104935;28;20051;-68
2024/01/02 04:10:18;;;;;;;20.98;18.75;;;;;;;;;;5078245;28;20057;-68
2024/01/02 04:12:44;;;;;;;20.55;18.35;;;;;;;;;;5097102;28;20114;-69
2024/01/02 04:15:09;;;;;;;20.98;18.88;;;;;;;;;;5096078;28;20016;-69
2024/01/02 04:17:34;;;;;;;20.73;18.52;;;;;;;;;;5095034;28;20053;-69
2024/01/02 04:20:00;;;;;;;17.10;15.30;;;;;;;;;;5081629;28;20020;-69
2024/01/02 04:22:26;;;;;;;16.33;14.63;;;;;;;;;;5087459;28;20499;-70
2024/01/02 04:24:52;;;;;;;20.83;18.65;;;;;;;;;;5094341;28;20114;-69
2024/01/02 04:27:17;;;;;;;18.02;16.23;;;;;;;;;;5096330;28;20103;-68
2024/01/02 04:29:43;;;;;;;15.45;13.90;;;;;;;;;;5094716;28;20031;-68
2024/01/02 04:32:08;;;;;;;17.77;15.88;;;;;;;;;;5094412;28;20065;-70
2024/01/02 04:34:33;;;;;;;23.75;21.25;;;;;;;;;;5087570;28;20031;-69
2024/01/02 04:36:59;;;;;;;36.17;32.47;;;;;;;;;;5087544;28;20031;-68
2024/01/02 04:39:24;;;;;;;270.08;172.38;;;;;;;;;;5091687;27;20054;-70
2024/01/02 04:41:50;;;;;;;62.95;42.90;;;;;;;;;;5096392;28;20361;-70
2024/01/02 04:44:15;;;;;;;24.38;21.75;;;;;;;;;;5101447;28;20047;-69
2024/01/02 04:46:41;;;;;;;21.20;19.00;;;;;;;;;;5097560;28;20039;-69
2024/01/02 04:49:06;;;;;;;17.30;15.52;;;;;;;;;;5084727;28;20451;-70
2024/01/02 04:51:32;;;;;;;8.73;7.93;;;;;;;;;;5098501;28;20019;-69
2024/01/02 04:53:57;;;;;;;8.30;7.60;;;;;;;;;;5097062;28;20408;-69
2024/01/02 04:56:23;;;;;;;9.30;8.40;;;;;;;;;;5097688;28;20480;-69
2024/01/02 04:58:48;;;;;;;16.33;13.95;;;;;;;;;;5098540;28;20089;-68
2024/01/02 05:01:14;;;;;;;28.67;22.20;;;;;;;;;;5100044;28;20430;-68
2024/01/02 05:03:39;;;;;;;45.97;31.58;;;;;;;;;;5098756;28;20031;-70
2024/01/02 05:06:05;;;;;;;40.22;28.00;;;;;;;;;;5097086;28;20031;-68
2024/01/02 05:08:30;;;;;;;47.47;28.73;;;;;;;;;;5110703;27;20127;-70
2024/01/02 05:10:55;;;;;;;51.80;30.02;;;;;;;;;;5119016;27;20027;-69
2024/01/02 05:13:21;;;;;;;53.90;31.45;;;;;;;;;;5097398;27;20035;-69
2024/01/02 05:15:46;;;;;;;29.77;18.60;;;;;;;;;;5106908;27;20024;-69
2024/01/02 05:18:11;;;;;;;24.98;17.50;;;;;;;;;;5119022;27;20118;-69
2024/01/02 05:20:37;;;;;;;38.10;22.27;;;;;;;;;;5118897;27;20023;-69
2024/01/02 05:23:03;;;;;;;24.85;20.60;;;;;;;;;;5117533;27;20320;-69
2024/01/02 05:25:29;;;;;;;21.27;17.92;;;;;;;;;;5119546;27;20399;-69
2024/01/02 05:27:54;;;;;;;20.85;18.63;;;;;;;;;;5119984;27;20046;-69
2024/01/02 05:30:20;;;;;;;28.05;25.10;;;;;;;;;;5115429;27;20031;-69
2024/01/02 05:32:45;;;;;;;44.55;39.67;;;;;;;;;;5094160;27;20106;-70
2024/01/02 05:35:11;;;;;;;51.78;43.72;;;;;;;;;;5105656;27;20087;-70
2024/01/02 05:37:36;;;;;;;21.42;19.13;;;;;;;;;;5117242;27;20436;-69
2024/01/02 05:40:03;;;;;;;10.70;9.55;;;;;;;;;;5119044;27;20023;-70
2024/01/02 05:42:28;;;;;;;15.02;13.48;;;;;;;;;;5119416;27;20012;-69
2024/01/02 05:44:53;;;;;;;24.08;21.00;;;;;;;;;;5116390;27;20457;-69
2024/01/02 05:47:19;;;;;;;24.55;21.90;;;;;;;;;;5108824;27;20030;-69
2024/01/02 05:49:44;;;;;;;18.60;16.70;;;;;;;;;;5104308;27;20140;-69
2024/01/02 05:52:09;;;;;;;15.57;13.95;;;;;;;;;;5115818;27;20123;-68
2024/01/02 05:54:35;;;;;;;10.48;9.25;;;;;;;;;;5118781;27;20430;-69
2024/01/02 05:57:00;;;;;;;13.23;11.40;;;;;;;;;;5116304;27;20133;-69
2024/01/02 05:59:25;;;;;;;26.48;20.63;;;;;;;;;;5116879;27;20027;-69
2024/01/02 06:01:51;;;;;;;29.60;22.58;;;;;;;;;;5118792;27;20020;-69
2024/01/02 06:04:16;;;;;;;21.20;19.00;;;;;;;;;;5116769;27;20463;-70
2024/01/02 06:06:41;;;;;;;27.35;24.38;;;;;;;;;;5118950;27;20487;-70
2024/01/02 06:09:07;;;;;;;32.05;28.58;;;;;;;;;;5114935;27;20154;-69
2024/01/02 06:11:32;;;;;;;48.40;43.10;;;;;;;;;;5098250;27;20050;-69
2024/01/02 06:13:58;;;;;;;146.43;107.07;;;;;;;;;;5119406;27;20152;-69
2024/01/02 06:16:23;;;;;;;111.43;85.35;;;;;;;;;;5117219;27;20023;-68
2024/01/02 06:18:48;;;;;;;74.20;58.83;;;;;;;;;;5097284;27;20043;-68
2024/01/02 06:21:14;;;;;;;71.35;57.47;;;;;;;;;;5094529;27;20334;-68
2024/01/02 06:23:40;;;;;;;47.92;39.95;;;;;;;;;;5094156;27;20039;-68
2024/01/02 06:26:06;;;;;;;49.72;38.13;;;;;;;;;;5116918;27;20027;-70
2024/01/02 06:28:31;;;;;;;33.92;29.70;;;;;;;;;;5116298;27;20043;-69
2024/01/02 06:30:56;;;;;;;32.95;28.48;;;;;;;;;;5118417;27;20437;-69
2024/01/02 06:33:23;;;;;;;136.40;73.47;;;;;;;;;;5116134;27;20035;-68
2024/01/02 06:35:49;;;;;;;54.55;35.70;;;;;;;;;;5115404;27;20019;-69
2024/01/02 06:38:14;;;;;;;20.85;16.05;;;;;;;;;;5116149;27;20430;-69
2024/01/02 06:40:40;;;;;;;34.30;22.25;;;;;;;;;;5116436;27;20023;-70
2024/01/02 06:43:05;;;;;;;38.00;28.77;;;;;;;;;;5096531;27;20144;-68
2024/01/02 06:45:31;;;;;;;30.42;26.08;;;;;;;;;;5115233;27;20063;-69
2024/01/02 06:47:56;;;;;;;28.80;25.77;;;;;;;;;;5115758;27;20355;-70
2024/01/02 06:50:22;;;;;;;25.10;22.60;;;;;;;;;;5115958;27;20026;-70
2024/01/02 06:52:47;;;;;;;24.80;22.40;;;;;;;;;;5110647;27;20028;-69
2024/01/02 06:55:13;;;;;;;22.63;20.33;;;;;;;;;;5106829;27;20027;-69
2024/01/02 06:57:39;;;;;;;16.67;14.98;;;;;;;;;;5094388;27;20020;-70
2024/01/02 07:00:05;;;;;;;7.53;6.82;;;;;;;;;;5094344;27;20036;-70
2024/01/02 07:02:32;;;;;;;7.68;6.65;;;;;;;;;;5105194;27;20086;-70
2024/01/02 07:04:57;;;;;;;9.73;8.50;;;;;;;;;;5094776;27;20023;-70
2024/01/02 07:07:22;;;;;;;203.07;175.15;;;;;;;;;;5094227;27;20086;-68
2024/01/02 07:09:48;;;;;;;169.07;129.52;;;;;;;;;;5093398;27;20035;-68
2024/01/02 07:12:13;;;;;;;31.02;24.17;;;;;;;;;;5112312;27;20015;-69
2024/01/02 07:14:40;;;;;;;25.17;22.55;;;;;;;;;;5095556;27;20124;-70
2024/01/02 07:17:05;;;;;;;18.50;16.65;;;;;;;;;;5116651;27;20023;-70
2024/01/02 07:19:31;;;;;;;16.90;15.32;;;;;;;;;;5112557;27;20028;-68
2024/01/02 07:21:56;;;;;;;15.40;12.88;;;;;;;;;;5098518;27;20030;-71
2024/01/02 07:24:21;;;;;;;42.35;37.85;;;;;;;;;;5112696;27;20035;-68
2024/01/02 07:26:47;;;;;;;15.88;14.07;;;;;;;;;;5114146;27;20038;-68
2024/01/02 07:29:12;;;;;;;48.65;43.22;;;;;;;;;;5114740;27;20030;-68
2024/01/02 07:31:37;;;;;;;48.63;43.55;;;;;;;;;;5114160;27;20035;-68
2024/01/02 07:34:03;;;;;;;18.75;16.75;;;;;;;;;;5113168;27;20112;-69
2024/01/02 07:36:29;;;;;;;29.17;19.25;;;;;;;;;;5117091;27;20342;-69
2024/01/02 07:38:55;;;;;;;138.65;114.38;;;;;;;;;;5106723;27;20019;-70
2024/01/02 07:41:20;;;;;;;50.90;41.50;;;;;;;;;;5092300;27;20026;-67
2024/01/02 07:43:46;;;;;;;37.38;25.92;;;;;;;;;;5063272;27;20055;-72
2024/01/02 07:46:11;;;;;;;46.22;39.45;;;;;;;;;;5080706;28;20054;-69
2024/01/02 07:48:36;;;;;;;23.60;18.58;;;;;;;;;;5093257;28;20047;-67
2024/01/02 07:51:03;;;;;;;26.58;23.67;;;;;;;;;;5086385;28;20023;-68
2024/01/02 07:53:28;;;;;;;131.27;109.20;;;;;;;;;;5075524;28;20076;-67
2024/01/02 07:55:53;;;;;;;117.82;100.88;;;;;;;;;;5074555;28;20040;-66
2024/01/02 07:58:19;;;;;;;66.82;59.72;;;;;;;;;;5072326;28;20028;-69
2024/01/02 08:00:44;;;;;;;47.00;42.00;;;;;;;;;;5078161;28;20023;-67
2024/01/02 08:03:10;;;;;;;50.15;45.10;;;;;;;;;;5092163;28;20020;-69
2024/01/02 08:05:35;;;;;;;29.80;27.08;;;;;;;;;;5093287;28;20040;-67
2024/01/02 08:08:00;;;;;;;39.03;34.95;;;;;;;;;;5092816;28;20196;-70
2024/01/02 08:10:26;;;;;;;22.35;18.83;;;;;;;;;;5081371;28;20740;-72
2024/01/02 08:12:51;;;;;;;66.80;44.35;;;;;;;;;;5070223;28;20525;-70
2024/01/02 08:15:17;;;;;;;183.13;118.43;;;;;;;;;;5088243;28;20028;-70
2024/01/02 08:17:42;;;;;;;106.07;73.13;;;;;;;;;;5081375;28;20019;-71
2024/01/02 08:20:09;;;;;;;110.30;77.68;;;;;;;;;;5073314;28;20108;-68
2024/01/02 08:22:35;;;;;;;24.42;20.65;;;;;;;;;;5093227;28;20044;-66
2024/01/02 08:25:00;;;;;;;20.98;19.08;;;;;;;;;;5095956;28;20033;-72
2024/01/02 08:27:26;;;;;;;23.30;21.10;;;;;;;;;;5082149;28;20131;-70
2024/01/02 08:29:51;;;;;;;360.98;191.30;;;;;;;;;;5082708;28;20050;-75
2024/01/02 08:32:17;;;;;;;56.88;35.05;;;;;;;;;;5082360;28;20442;-71
2024/01/02 08:34:43;;;;;;;9.45;8.35;;;;;;;;;;5079848;28;20025;-70
2024/01/02 08:37:09;;;;;;;21.40;17.45;;;;;;;;;;5081332;28;20081;-69
2024/01/02 08:39:34;;;;;;;17.08;15.40;;;;;;;;;;5062358;28;20031;-70
2024/01/02 08:42:00;;;;;;;89.10;57.38;;;;;;;;;;5079125;28;21002;-66
2024/01/02 08:44:25;;;;;;;154.25;112.50;;;;;;;;;;5077143;28;20409;-72
2024/01/02 08:46:50;;;;;;;18.08;13.88;;;;;;;;;;5081066;28;20111;-70
2024/01/02 08:49:16;;;;;;;78.90;66.07;;;;;;;;;;5077199;28;20086;-69
2024/01/02 08:51:41;;;;;;;25.63;22.17;;;;;;;;;;5081933;28;20024;-69
2024/01/02 08:54:07;;;;;;;54.10;48.30;;;;;;;;;;5081019;28;20139;-69
2024/01/02 08:56:32;;;;;;;50.15;44.83;;;;;;;;;;5080031;28;20066;-68
2024/01/02 08:58:58;;;;;;;150.20;125.82;;;;;;;;;;5081130;28;20032;-70
2024/01/02 09:01:24;;;;;;;68.63;61.58;;;;;;;;;;5080690;28;20045;-71
2024/01/02 09:03:49;;;;;;;71.03;41.55;;;;;;;;;;5077266;28;20028;-69
2024/01/02 09:06:19;;;;;;;151.63;80.18;;;;;;;;;;5078666;28;20027;-69
2024/01/02 09:08:45;;;;;;;30.08;25.15;;;;;;;;;;5077183;28;20035;-70
2024/01/02 09:11:10;;;;;;;13.13;11.68;;;;;;;;;;5082461;28;20053;-68
2024/01/02 09:13:36;;;;;;;16.83;14.73;;;;;;;;;;5080461;28;20020;-69
2024/01/02 09:16:02;;;;;;;47.50;42.25;;;;;;;;;;5083964;28;20350;-68
2024/01/02 09:18:27;;;;;;;23.77;21.30;;;;;;;;;;5077588;28;20055;-68
2024/01/02 09:20:54;;;;;;;19.30;17.17;;;;;;;;;;5090272;28;20434;-69
2024/01/02 09:23:19;;;;;;;13.43;11.43;;;;;;;;;;5098556;28;20717;-68
2024/01/02 09:25:46;;;;;;;13.40;10.93;;;;;;;;;;5096642;28;20027;-69
2024/01/02 09:28:12;;;;;;;16.40;13.93;;;;;;;;;;5094060;27;20055;-66
2024/01/02 09:30:38;;;;;;;24.98;22.35;;;;;;;;;;5095876;28;20370;-68
2024/01/02 09:33:03;;;;;;;14.68;12.15;;;;;;;;;;5095272;28;20114;-67
2024/01/02 09:35:29;;;;;;;9.05;7.30;;;;;;;;;;5087935;28;20045;-68
2024/01/02 09:37:54;;;;;;;9.20;8.23;;;;;;;;;;5086458;28;20145;-69
2024/01/02 09:40:43;;;;;;;16.10;11.63;;;;;;;;;;5085649;28;20335;-70
2024/01/02 09:43:31;;;;;;;12.25;10.88;;;;;;;;;;5087622;28;20038;-70
2024/01/02 09:45:56;;;;;;;21.95;18.65;;;;;;;;;;5086420;28;20042;-71
2024/01/02 09:48:46;;;;;;;16.75;14.65;;;;;;;;;;5093909;28;20040;-70
2024/01/02 09:51:24;;;;;;;11.82;10.63;;;;;;;;;;5078312;28;20032;-71
2024/01/02 09:53:55;;;;;;;18.92;16.85;;;;;;;;;;5094062;28;20019;-70
2024/01/02 09:56:30;;;;;;;31.42;26.77;;;;;;;;;;5081009;28;20118;-68
2024/01/02 09:59:30;;;;;;;39.22;28.38;;;;;;;;;;5074220;28;20020;-70
2024/01/02 10:02:14;;;;;;;12.77;11.43;;;;;;;;;;5050761;28;20078;-69
2024/01/02 10:04:56;;;;;;;7.38;6.68;;;;;;;;;;5079156;28;20110;-68
2024/01/02 10:07:40;;;;;;;12.55;10.57;;;;;;;;;;5080573;28;20043;-71
2024/01/02 10:10:18;;;;;;;12.20;10.30;;;;;;;;;;5080892;27;20048;-70
2024/01/02 10:12:44;;;;;;;9.43;7.70;;;;;;;;;;5080655;28;20069;-69
2024/01/02 10:15:19;;;;;;;15.73;13.38;;;;;;;;;;5080758;28;20107;-66
2024/01/02 10:18:07;;;;;;;15.43;13.82;;;;;;;;;;5082118;28;20020;-67
2024/01/02 10:20:36;;;;;;;6.47;5.40;;;;;;;;;;5079359;28;20031;-69
2024/01/02 10:23:24;;;;;;;9.02;8.13;;;;;;;;;;5083670;28;20015;-67
2024/01/02 10:25:54;;;;;;;9.43;8.63;;;;;;;;;;5058755;28;20063;-69
2024/01/02 10:28:23;;;;;;;4.80;3.30;;;;;;;;;;5081251;28;20043;-66
2024/01/02 10:30:49;;;;;;;;;;;;;;;;;;5079380;28;20047;-72
2024/01/02 10:33:31;;;;;;;3.38;3.08;;;;;;;;;;5063392;28;19912;-70
2024/01/02 10:36:04;;;;;;;4.13;3.72;;;;;;;;;;5083794;28;20408;-70
2024/01/02 10:38:36;;;;;;;21.00;15.35;;;;;;;;;;5086195;28;20047;-69
2024/01/02 10:41:16;;;;;;;7.43;5.97;;;;;;;;;;5079584;28;21109;-70
2024/01/02 10:44:00;;;;;;;15.43;13.93;;;;;;;;;;5074283;28;20031;-70
2024/01/02 10:46:46;;;;;;;4.93;4.05;;;;;;;;;;5073906;28;20427;-69
2024/01/02 10:49:30;;;;;;;10.45;9.45;;;;;;;;;;5075958;28;20071;-71
2024/01/02 10:52:05;;;;;;;18.77;16.83;;;;;;;;;;5078205;28;20035;-69
2024/01/02 10:54:38;;;;;;;22.90;20.25;;;;;;;;;;5080805;28;20108;-69
2024/01/02 10:57:10;;;;;;;10.00;9.05;;;;;;;;;;5074923;28;20077;-71
2024/01/02 11:00:12;;;;;;;5.95;5.40;;;;;;;;;;5078804;28;20031;-71
2024/01/02 11:02:44;;;;;;;7.85;6.25;;;;;;;;;;4986679;28;20179;-70
2024/01/02 11:05:18;;;;;;;16.30;12.27;;;;;;;;;;5001717;28;21156;-69
2024/01/02 11:07:45;;;;;;;8.40;6.05;;;;;;;;;;5001067;28;20073;-70
2024/01/02 11:10:14;;;;;;;34.35;24.05;;;;;;;;;;5001177;28;20099;-70
2024/01/02 11:12:43;;;;;;;5.07;4.35;;;;;;;;;;4999744;28;20029;-70
2024/01/02 11:15:11;;;;;;;11.30;8.68;;;;;;;;;;5000754;28;20689;-68
2024/01/02 11:17:38;;;;;;;21.13;14.80;;;;;;;;;;5002976;28;20107;-67
2024/01/02 11:20:07;;;;;;;11.38;6.45;;;;;;;;;;5002897;28;20040;-71
2024/01/02 11:23:04;;;;;;;6.70;6.07;;;;;;;;;;4995895;28;20371;-70
2024/01/02 11:25:31;;;;;;;19.52;15.15;;;;;;;;;;4943833;28;20058;-71
2024/01/02 11:27:58;;;;;;;30.38;22.40;;;;;;;;;;4938065;28;20276;-71
2024/01/02 11:30:24;;;;;;;14.23;11.50;;;;;;;;;;4948028;28;20200;-66
2024/01/02 11:32:58;;;;;;;29.30;23.77;;;;;;;;;;4946207;28;20039;-70
2024/01/02 11:35:26;;;;;;;18.15;16.17;;;;;;;;;;4944701;28;20537;-69
2024/01/02 11:38:01;;;;;;;19.17;17.15;;;;;;;;;;5002263;28;20026;-70
2024/01/02 11:40:35;;;;;;;7.95;6.13;;;;;;;;;;5003931;28;20037;-70
2024/01/02 11:43:18;;;;;;;6.55;4.70;;;;;;;;;;4991223;28;20068;-70
2024/01/02 11:45:47;;;;;;;11.00;7.93;;;;;;;;;;5006700;28;20128;-70
2024/01/02 11:48:19;;;;;;;12.07;10.77;;;;;;;;;;5003720;28;20101;-68
2024/01/02 11:51:09;;;;;;;28.52;22.15;;;;;;;;;;5000583;28;20044;-70
2024/01/02 11:53:50;;;;;;;28.48;19.42;;;;;;;;;;5006389;28;20026;-71
2024/01/02 11:56:16;;;;;;;15.35;9.88;;;;;;;;;;5002507;28;20227;-69
2024/01/02 11:58:42;;;;;;;16.63;9.38;;;;;;;;;;4994765;28;22002;-68
2024/01/02 12:01:26;;;;;;;6.45;5.50;;;;;;;;;;5040991;28;20064;-69
2024/01/02 12:04:07;;;;;;;14.32;9.15;;;;;;;;;;5077451;28;20020;-66
2024/01/02 12:06:48;;;;;;;20.08;12.35;;;;;;;;;;5029212;28;20772;-70
2024/01/02 12:09:17;;;;;;;9.93;7.80;;;;;;;;;;5078124;28;20535;-66
2024/01/02 12:12:02;;;;;;;13.23;9.18;;;;;;;;;;5079909;28;20028;-68
2024/01/02 12:14:33;;;;;;;15.20;9.30;;;;;;;;;;5075381;28;20043;-71
2024/01/02 12:17:00;;;;;;;8.77;6.93;;;;;;;;;;5059306;28;20115;-73
2024/01/02 12:19:28;;;;;;;12.63;7.72;;;;;;;;;;5078319;28;20024;-72
2024/01/02 12:21:54;;;;;;;19.83;12.43;;;;;;;;;;5075320;28;20020;-68
2024/01/02 12:24:20;;;;;;;16.67;10.10;;;;;;;;;;5078433;28;20024;-71
2024/01/02 12:26:45;;;;;;;49.72;29.65;;;;;;;;;;5078746;28;20053;-71
2024/01/02 12:29:20;;;;;;;19.20;13.80;;;;;;;;;;5077791;28;20148;-71
2024/01/02 12:31:55;;;;;;;20.92;14.32;;;;;;;;;;5079114;28;20338;-72
2024/01/02 12:34:31;;;;;;;10.13;7.63;;;;;;;;;;5078699;28;20455;-66
2024/01/02 12:37:22;;;;;;;15.18;13.45;;;;;;;;;;5073081;28;20024;-70
2024/01/02 12:39:51;;;;;;;10.82;9.25;;;;;;;;;;5078855;28;20115;-70
2024/01/02 12:42:21;;;;;;;9.02;7.70;;;;;;;;;;5079795;28;20028;-70
2024/01/02 12:44:46;;;;;;;;;;;;;;;;;;5081636;28;20034;-69
2024/01/02 12:47:12;;;;;;;11.00;9.43;;;;;;;;;;5081480;28;19919;-69
2024/01/02 12:49:46;;;;;;;20.55;13.15;;;;;;;;;;5077776;28;20032;-69
2024/01/02 12:52:15;;;;;;;27.52;19.85;;;;;;;;;;5078426;28;20556;-70
2024/01/02 12:54:42;;;;;;;14.73;11.82;;;;;;;;;;5082681;28;20720;-66
2024/01/02 12:57:07;;;;;;;29.67;22.60;;;;;;;;;;5086387;28;20337;-70
2024/01/02 12:59:35;;;;;;;16.90;14.40;;;;;;;;;;5083224;28;20050;-70
2024/01/02 13:02:07;;;;;;;21.40;15.88;;;;;;;;;;5085226;28;20028;-67
2024/01/02 13:04:35;;;;;;;11.55;7.93;;;;;;;;;;5085987;28;20423;-70
2024/01/02 13:07:04;;;;;;;11.27;8.70;;;;;;;;;;5083510;28;20351;-66
2024/01/02 13:09:30;;;;;;;12.32;8.60;;;;;;;;;;5083191;28;20056;-70
2024/01/02 13:12:00;;;;;;;6.72;6.03;;;;;;;;;;5084188;28;20028;-66
2024/01/02 13:14:26;;;;;;;11.18;10.02;;;;;;;;;;5076115;28;20501;-70
2024/01/02 13:16:51;;;;;;;7.75;7.03;;;;;;;;;;5095571;28;20449;-68
2024/01/02 13:19:17;;;;;;;15.23;12.27;;;;;;;;;;5067374;28;20043;-71
2024/01/02 13:21:44;;;;;;;12.13;9.63;;;;;;;;;;5075103;28;20093;-69
2024/01/02 13:24:10;;;;;;;31.95;21.48;;;;;;;;;;5078887;28;20396;-69
2024/01/02 13:26:45;;;;;;;22.40;16.83;;;;;;;;;;5081130;28;20107;-72
2024/01/02 13:29:11;;;;;;;11.15;9.40;;;;;;;;;;5097957;28;20050;-71
2024/01/02 13:31:38;;;;;;;14.15;10.63;;;;;;;;;;5079261;28;20135;-70
2024/01/02 13:34:04;;;;;;;22.92;16.20;;;;;;;;;;5094450;28;20031;-67
2024/01/02 13:36:29;;;;;;;20.98;17.75;;;;;;;;;;5098915;28;20050;-67
2024/01/02 13:38:54;;;;;;;9.38;7.95;;;;;;;;;;5097720;28;20124;-70
2024/01/02 13:41:20;;;;;;;17.08;13.27;;;;;;;;;;5079717;28;20398;-70
2024/01/02 13:43:46;;;;;;;9.52;8.00;;;;;;;;;;5080987;28;20132;-71
2024/01/02 13:46:16;;;;;;;13.05;10.82;;;;;;;;;;5082839;28;20031;-71
2024/01/02 13:48:52;;;;;;;17.25;14.57;;;;;;;;;;5085142;28;20039;-66
2024/01/02 13:51:18;;;;;;;13.45;12.13;;;;;;;;;;5084049;28;20032;-71
2024/01/02 13:54:03;;;;;;;12.65;10.95;;;;;;;;;;5085212;28;20042;-70
2024/01/02 13:56:29;;;;;;;13.52;11.32;;;;;;;;;;5080754;28;20081;-68
2024/01/02 13:59:05;;;;;;;11.80;7.40;;;;;;;;;;5079616;28;20019;-67
2024/01/02 14:01:32;;;;;;;10.43;8.40;;;;;;;;;;5082617;28;20031;-69
2024/01/02 14:03:58;;;;;;;18.40;14.00;;;;;;;;;;5078111;28;20031;-67
2024/01/02 14:06:25;;;;;;;22.10;18.63;;;;;;;;;;5077899;28;20042;-71
2024/01/02 14:09:07;;;;;;;18.23;15.02;;;;;;;;;;5076957;28;20113;-71
2024/01/02 14:11:33;;;;;;;37.60;34.00;;;;;;;;;;5080550;28;20054;-69
2024/01/02 14:14:09;;;;;;;25.08;22.58;;;;;;;;;;5085370;28;20102;-67
2024/01/02 14:16:36;;;;;;;10.48;9.38;;;;;;;;;;5064948;28;20388;-71
2024/01/02 14:19:01;;;;;;;15.15;13.57;;;;;;;;;;5079988;28;20134;-67
2024/01/02 14:21:27;;;;;;;27.55;24.73;;;;;;;;;;5069344;28;20131;-70
2024/01/02 14:24:04;;;;;;;11.27;9.77;;;;;;;;;;5084810;28;20437;-71